createdAt,value
2019-04-25T00:00:48.736Z,13.70
2019-04-25T00:03:22.304Z,13.17
2019-04-25T00:05:52.291Z,13.60
2019-04-25T00:08:21.538Z,13.73
2019-04-25T00:10:51.646Z,13.40
2019-04-25T00:13:21.792Z,14.07
2019-04-25T00:15:51.848Z,13.83
2019-04-25T00:18:22.099Z,14.30
2019-04-25T00:20:55.564Z,13.70
2019-04-25T00:23:24.111Z,13.87
2019-04-25T00:26:11.311Z,13.37
2019-04-25T00:28:42.031Z,12.70
2019-04-25T00:31:11.975Z,13.57
2019-04-25T00:33:41.354Z,13.47
2019-04-25T00:36:12.059Z,13.67
2019-04-25T00:38:42.919Z,13.77
2019-04-25T00:41:11.632Z,13.13
2019-04-25T00:43:42.182Z,12.53
2019-04-25T00:46:11.433Z,13.37
2019-04-25T00:48:41.498Z,13.00
2019-04-25T00:51:11.762Z,13.67
2019-04-25T00:53:41.808Z,13.53
2019-04-25T00:56:11.264Z,13.30
2019-04-25T00:58:51.399Z,13.57
2019-04-25T01:01:31.737Z,12.50
2019-04-25T01:04:01.955Z,13.63
2019-04-25T01:06:31.926Z,12.80
2019-04-25T01:09:01.504Z,12.97
2019-04-25T01:11:31.402Z,12.57
2019-04-25T01:13:59.913Z,12.43
2019-04-25T01:16:28.427Z,12.40
2019-04-25T01:18:57.633Z,12.00
2019-04-25T01:21:26.224Z,12.33
2019-04-25T01:23:54.719Z,11.70
2019-04-25T01:26:23.970Z,11.97
2019-04-25T01:28:54.052Z,11.50
2019-04-25T01:31:24.895Z,11.30
2019-04-25T01:33:54.638Z,11.23
2019-04-25T01:36:41.801Z,11.00
2019-04-25T01:39:28.497Z,11.90
2019-04-25T01:41:58.789Z,11.60
2019-04-25T01:44:28.905Z,11.67
2019-04-25T01:46:58.228Z,11.80
2019-04-25T01:49:26.964Z,11.53
2019-04-25T01:51:57.465Z,11.80
2019-04-25T01:54:25.908Z,11.67
2019-04-25T01:56:56.116Z,11.67
2019-04-25T01:59:24.708Z,11.70
2019-04-25T02:01:54.573Z,11.93
2019-04-25T02:04:23.487Z,11.50
2019-04-25T02:06:54.331Z,11.67
2019-04-25T02:09:23.320Z,11.43
2019-04-25T02:11:54.765Z,12.03
2019-04-25T02:14:24.174Z,12.20
2019-04-25T02:16:55.043Z,11.87
2019-04-25T02:19:24.179Z,11.43
2019-04-25T02:21:55.102Z,11.67
2019-04-25T02:24:23.698Z,12.40
2019-04-25T02:26:54.820Z,11.23
2019-04-25T02:29:23.512Z,11.70
2019-04-25T02:31:54.679Z,11.87
2019-04-25T02:34:24.854Z,11.87
2019-04-25T02:36:55.546Z,11.93
2019-04-25T02:39:24.556Z,11.73
2019-04-25T02:41:56.016Z,12.13
2019-04-25T02:44:24.731Z,12.17
2019-04-25T02:47:00.523Z,12.20
2019-04-25T02:49:45.277Z,11.60
2019-04-25T02:52:21.376Z,11.93
2019-04-25T02:54:49.842Z,11.97
2019-04-25T02:57:18.305Z,11.60
2019-04-25T02:59:46.832Z,12.40
2019-04-25T03:02:36.766Z,13.00
2019-04-25T03:05:07.866Z,12.47
2019-04-25T03:07:35.894Z,11.77
2019-04-25T03:10:09.367Z,12.27
2019-04-25T03:12:37.517Z,11.53
2019-04-25T03:15:09.721Z,12.07
2019-04-25T03:17:36.979Z,12.30
2019-04-25T03:20:17.349Z,12.00
2019-04-25T03:22:45.904Z,12.17
2019-04-25T03:25:17.397Z,12.53
2019-04-25T03:27:44.924Z,12.27
2019-04-25T03:30:17.387Z,12.17
2019-04-25T03:32:45.028Z,12.50
2019-04-25T03:35:14.540Z,12.57
2019-04-25T03:37:43.630Z,12.43
2019-04-25T03:40:13.935Z,12.07
2019-04-25T03:42:43.893Z,12.60
2019-04-25T03:45:14.003Z,12.00
2019-04-25T03:47:43.223Z,12.43
2019-04-25T03:50:13.821Z,12.40
2019-04-25T03:52:43.571Z,12.30
2019-04-25T03:55:14.240Z,12.67
2019-04-25T03:57:44.300Z,12.97
2019-04-25T04:00:14.565Z,12.33
2019-04-25T04:02:44.289Z,12.33
2019-04-25T04:05:32.456Z,12.80
2019-04-25T04:08:00.912Z,12.17
2019-04-25T04:10:29.448Z,12.40
2019-04-25T04:12:58.716Z,12.60
2019-04-25T04:15:27.324Z,13.10
2019-04-25T04:18:14.657Z,13.33
2019-04-25T04:20:53.557Z,12.97
2019-04-25T04:23:26.455Z,12.20
2019-04-25T04:25:54.915Z,12.53
2019-04-25T04:28:23.663Z,12.73
2019-04-25T04:30:54.042Z,12.30
2019-04-25T04:33:30.212Z,13.60
2019-04-25T04:35:54.333Z,13.23
2019-04-25T04:38:24.086Z,12.97
2019-04-25T04:40:52.688Z,12.50
2019-04-25T04:43:21.181Z,12.83
2019-04-25T04:45:49.852Z,13.20
2019-04-25T04:48:18.867Z,12.90
2019-04-25T04:50:47.570Z,12.30
2019-04-25T04:53:17.147Z,13.90
2019-04-25T04:55:45.765Z,13.00
2019-04-25T04:58:14.996Z,13.20
2019-04-25T05:00:44.764Z,13.33
2019-04-25T05:03:34.305Z,12.90
2019-04-25T05:06:04.687Z,13.47
2019-04-25T05:08:37.331Z,13.93
2019-04-25T05:11:05.802Z,13.13
2019-04-25T05:13:34.379Z,13.60
2019-04-25T05:16:03.296Z,13.57
2019-04-25T05:18:37.563Z,13.00
2019-04-25T05:21:02.240Z,13.03
2019-04-25T05:23:30.709Z,14.80
2019-04-25T05:25:59.258Z,13.23
2019-04-25T05:28:27.831Z,14.30
2019-04-25T05:30:58.195Z,13.40
2019-04-25T05:33:26.677Z,13.77
2019-04-25T05:35:55.182Z,13.53
2019-04-25T05:38:24.319Z,13.40
2019-04-25T05:40:55.319Z,13.97
2019-04-25T05:43:25.813Z,13.97
2019-04-25T05:45:54.589Z,13.77
2019-04-25T05:48:25.043Z,13.43
2019-04-25T05:50:53.812Z,14.33
2019-04-25T05:53:23.872Z,13.70
2019-04-25T05:55:54.064Z,13.50
2019-04-25T05:58:24.585Z,13.33
2019-04-25T06:00:54.310Z,14.10
2019-04-25T06:03:24.855Z,14.03
2019-04-25T06:05:53.437Z,14.07
2019-04-25T06:08:26.448Z,14.27
2019-04-25T06:10:56.432Z,12.77
2019-04-25T06:13:35.480Z,13.80
2019-04-25T06:16:05.657Z,12.20
2019-04-25T06:18:35.776Z,13.47
2019-04-25T06:21:05.799Z,13.93
2019-04-25T06:23:54.480Z,13.43
2019-04-25T06:26:34.118Z,14.10
2019-04-25T06:28:59.032Z,14.57
2019-04-25T06:31:26.484Z,14.20
2019-04-25T06:33:54.307Z,14.13
2019-04-25T06:36:24.292Z,13.87
2019-04-25T06:38:54.168Z,14.53
2019-04-25T06:41:24.682Z,14.20
2019-04-25T06:43:54.756Z,13.80
2019-04-25T06:46:27.767Z,14.30
2019-04-25T06:48:58.372Z,14.50
2019-04-25T06:51:46.139Z,13.87
2019-04-25T06:54:14.744Z,14.70
2019-04-25T06:56:43.526Z,14.87
2019-04-25T06:59:13.594Z,14.70
2019-04-25T07:02:01.648Z,14.57
2019-04-25T07:04:30.166Z,14.37
2019-04-25T07:07:10.477Z,14.30
2019-04-25T07:09:34.517Z,14.90
2019-04-25T07:12:03.439Z,14.43
2019-04-25T07:14:33.861Z,14.30
2019-04-25T07:17:04.218Z,13.53
2019-04-25T07:19:34.304Z,14.27
2019-04-25T07:22:03.905Z,14.70
2019-04-25T07:24:35.185Z,14.53
2019-04-25T07:27:10.670Z,15.17
2019-04-25T07:29:56.040Z,15.03
2019-04-25T07:32:29.679Z,15.30
2019-04-25T07:34:56.390Z,15.20
2019-04-25T07:37:25.946Z,14.57
2019-04-25T07:39:54.648Z,15.33
2019-04-25T07:42:23.848Z,14.73
2019-04-25T07:44:54.933Z,15.17
2019-04-25T07:47:24.262Z,14.73
2019-04-25T07:49:54.136Z,14.43
2019-04-25T07:52:23.434Z,14.93
2019-04-25T07:54:52.038Z,15.70
2019-04-25T07:57:20.590Z,15.27
2019-04-25T07:59:51.574Z,13.90
2019-04-25T08:02:19.331Z,14.70
2019-04-25T08:04:47.971Z,16.77
2019-04-25T08:07:16.500Z,15.10
2019-04-25T08:09:45.028Z,15.83
2019-04-25T08:12:13.649Z,16.50
2019-04-25T08:14:45.900Z,15.77
2019-04-25T08:17:18.777Z,16.03
2019-04-25T08:19:47.578Z,15.70
2019-04-25T08:22:16.168Z,15.00
2019-04-25T08:24:45.223Z,16.47
2019-04-25T08:27:13.681Z,17.23
2019-04-25T08:29:42.216Z,15.63
2019-04-25T08:32:10.790Z,17.00
2019-04-25T08:34:39.414Z,15.80
2019-04-25T08:37:17.358Z,16.37
2019-04-25T08:39:57.500Z,17.07
2019-04-25T08:42:25.957Z,17.60
2019-04-25T08:44:54.413Z,18.23
2019-04-25T08:47:24.326Z,17.40
2019-04-25T08:49:54.607Z,18.27
2019-04-25T08:52:24.315Z,18.53
2019-04-25T08:55:00.441Z,18.67
2019-04-25T08:57:46.768Z,18.53
2019-04-25T09:00:18.068Z,17.73
2019-04-25T09:02:48.172Z,18.17
2019-04-25T09:05:19.192Z,17.10
2019-04-25T09:07:47.786Z,17.43
2019-04-25T09:10:16.251Z,17.90
2019-04-25T09:12:45.366Z,18.57
2019-04-25T09:15:15.024Z,18.83
2019-04-25T09:17:44.459Z,18.60
2019-04-25T09:20:14.378Z,18.63
2019-04-25T09:22:44.554Z,18.53
2019-04-25T09:25:34.541Z,19.40
2019-04-25T09:28:04.388Z,19.47
2019-04-25T09:30:34.959Z,19.53
2019-04-25T09:33:04.610Z,19.33
2019-04-25T09:35:33.569Z,18.87
2019-04-25T09:38:03.366Z,18.97
2019-04-25T09:40:32.153Z,19.40
2019-04-25T09:43:01.189Z,19.07
2019-04-25T09:45:31.356Z,20.33
2019-04-25T09:48:03.126Z,19.27
2019-04-25T09:50:39.677Z,20.20
2019-04-25T09:53:15.461Z,19.43
2019-04-25T09:55:47.183Z,19.60
2019-04-25T09:58:18.403Z,19.53
2019-04-25T10:00:48.670Z,19.73
2019-04-25T10:03:17.183Z,21.27
2019-04-25T10:05:46.808Z,20.83
2019-04-25T10:08:15.572Z,20.03
2019-04-25T10:10:44.650Z,20.43
2019-04-25T10:13:13.325Z,21.33
2019-04-25T10:15:51.137Z,19.23
2019-04-25T10:18:19.822Z,19.77
2019-04-25T10:20:49.423Z,20.10
2019-04-25T10:23:18.606Z,19.98
2019-04-25T10:25:48.415Z,19.75
2019-04-25T10:28:17.303Z,20.02
2019-04-25T10:30:46.850Z,19.87
2019-04-25T10:33:17.028Z,19.40
2019-04-25T10:35:51.987Z,19.23
2019-04-25T10:38:15.871Z,18.92
2019-04-25T10:40:47.400Z,18.70
2019-04-25T10:43:16.250Z,20.08
2019-04-25T10:45:46.312Z,18.48
2019-04-25T10:48:15.806Z,19.67
2019-04-25T10:50:45.934Z,19.05
2019-04-25T10:53:14.703Z,20.08
2019-04-25T10:55:44.066Z,19.95
2019-04-25T10:58:14.081Z,19.65
2019-04-25T11:00:46.205Z,19.50
2019-04-25T11:03:33.717Z,19.17
2019-04-25T11:06:03.925Z,19.23
2019-04-25T11:08:34.065Z,19.75
2019-04-25T11:11:24.148Z,18.52
2019-04-25T11:13:55.662Z,17.60
2019-04-25T11:16:24.347Z,19.30
2019-04-25T11:18:54.800Z,19.10
2019-04-25T11:21:24.307Z,20.00
2019-04-25T11:23:55.080Z,18.82
2019-04-25T11:26:23.542Z,19.23
2019-04-25T11:28:52.137Z,19.00
2019-04-25T11:31:23.506Z,18.23
2019-04-25T11:33:54.395Z,17.70
2019-04-25T11:36:24.808Z,20.82
2019-04-25T11:38:57.655Z,19.92
2019-04-25T11:41:26.268Z,22.30
2019-04-25T11:43:55.660Z,21.30
2019-04-25T11:46:25.156Z,22.02
2019-04-25T11:48:54.837Z,22.37
2019-04-25T11:51:24.145Z,22.32
2019-04-25T11:53:54.591Z,22.20
2019-04-25T11:56:24.135Z,23.65
2019-04-25T11:58:54.143Z,22.82
2019-04-25T12:01:24.372Z,23.62
2019-04-25T12:03:54.869Z,22.42
2019-04-25T12:06:24.316Z,25.15
2019-04-25T12:08:54.184Z,22.85
2019-04-25T12:11:23.653Z,23.77
2019-04-25T12:13:53.815Z,24.12
2019-04-25T12:16:24.527Z,22.90
2019-04-25T12:18:55.314Z,22.70
2019-04-25T12:21:23.969Z,22.75
2019-04-25T12:23:52.753Z,23.67
2019-04-25T12:26:21.290Z,23.35
2019-04-25T12:28:49.776Z,21.42
2019-04-25T12:31:18.346Z,22.00
2019-04-25T12:33:48.650Z,22.30
2019-04-25T12:36:17.239Z,21.87
2019-04-25T12:38:46.121Z,22.58
2019-04-25T12:41:14.679Z,22.75
2019-04-25T12:43:54.579Z,23.10
2019-04-25T12:46:34.622Z,23.27
2019-04-25T12:49:02.592Z,21.97
2019-04-25T12:51:31.129Z,24.98
2019-04-25T12:53:59.728Z,22.52
2019-04-25T12:56:28.233Z,21.97
2019-04-25T12:58:56.694Z,23.15
2019-04-25T13:01:25.247Z,23.05
2019-04-25T13:03:55.078Z,23.07
2019-04-25T13:06:23.938Z,23.42
2019-04-25T13:08:54.123Z,23.85
2019-04-25T13:11:23.939Z,22.27
2019-04-25T13:13:52.590Z,23.52
2019-04-25T13:16:21.152Z,24.18
2019-04-25T13:18:49.990Z,23.62
2019-04-25T13:21:18.590Z,23.10
2019-04-25T13:23:47.129Z,21.97
2019-04-25T13:26:17.355Z,22.35
2019-04-25T13:28:50.175Z,23.45
2019-04-25T13:31:26.346Z,21.77
2019-04-25T13:33:57.299Z,21.15
2019-04-25T13:36:25.987Z,21.82
2019-04-25T13:38:54.503Z,21.05
2019-04-25T13:41:23.574Z,21.45
2019-04-25T13:43:53.261Z,19.90
2019-04-25T13:46:25.862Z,19.30
2019-04-25T13:48:54.254Z,16.67
2019-04-25T13:51:24.494Z,15.20
2019-04-25T13:53:54.524Z,13.85
2019-04-25T13:56:25.874Z,15.55
2019-04-25T13:58:54.242Z,17.02
2019-04-25T14:01:24.661Z,16.25
2019-04-25T14:03:54.245Z,15.58
2019-04-25T14:06:23.926Z,16.52
2019-04-25T14:08:53.434Z,15.40
2019-04-25T14:11:23.970Z,14.23
2019-04-25T14:13:52.547Z,15.28
2019-04-25T14:16:26.755Z,11.50
2019-04-25T14:18:59.770Z,11.38
2019-04-25T14:21:29.239Z,12.55
2019-04-25T14:23:57.963Z,12.55
2019-04-25T14:26:27.076Z,11.55
2019-04-25T14:28:55.613Z,12.58
2019-04-25T14:31:41.260Z,11.83
2019-04-25T14:33:55.444Z,10.23
2019-04-25T14:36:25.796Z,10.63
2019-04-25T14:38:54.410Z,10.80
2019-04-25T14:41:23.807Z,10.35
2019-04-25T14:43:52.535Z,8.98
2019-04-25T14:46:21.267Z,9.80
2019-04-25T14:48:50.317Z,9.98
2019-04-25T14:51:18.974Z,8.60
2019-04-25T14:53:47.517Z,7.12
2019-04-25T14:56:26.670Z,6.12
2019-04-25T14:58:55.251Z,4.95
2019-04-25T15:01:24.449Z,5.70
2019-04-25T15:03:52.984Z,6.25
2019-04-25T15:06:21.676Z,5.92
2019-04-25T15:08:50.277Z,5.60
2019-04-25T15:11:18.842Z,5.33
2019-04-25T15:13:47.346Z,5.70
2019-04-25T15:16:15.821Z,6.40
2019-04-25T15:18:46.856Z,3.80
2019-04-25T15:21:14.651Z,4.00
2019-04-25T15:23:43.128Z,3.90
2019-04-25T15:26:11.591Z,2.77
2019-04-25T15:28:40.947Z,2.90
2019-04-25T15:31:09.569Z,2.83
2019-04-25T15:33:38.041Z,2.60
2019-04-25T15:36:08.514Z,2.40
2019-04-25T15:38:46.251Z,2.52
2019-04-25T15:41:19.586Z,3.40
2019-04-25T15:43:49.694Z,2.90
2019-04-25T15:46:22.726Z,2.65
2019-04-25T15:48:51.561Z,2.87
2019-04-25T15:51:20.180Z,3.08
2019-04-25T15:53:48.771Z,2.95
2019-04-25T15:56:17.483Z,2.90
2019-04-25T15:58:46.043Z,2.90
2019-04-25T16:01:14.534Z,2.62
2019-04-25T16:03:43.161Z,2.60
2019-04-25T16:06:11.787Z,2.10
2019-04-25T16:08:40.329Z,2.30
2019-04-25T16:11:08.962Z,1.75
2019-04-25T16:13:37.557Z,2.37
2019-04-25T16:16:06.439Z,2.35
2019-04-25T16:18:54.366Z,2.60
2019-04-25T16:21:22.905Z,2.50
2019-04-25T16:23:51.455Z,3.08
2019-04-25T16:26:20.200Z,2.90
2019-04-25T16:28:48.742Z,4.62
2019-04-25T16:31:19.197Z,4.17
2019-04-25T16:33:48.060Z,3.50
2019-04-25T16:36:16.927Z,4.28
2019-04-25T16:38:45.524Z,4.15
2019-04-25T16:41:14.637Z,4.08
2019-04-25T16:43:44.800Z,4.10
2019-04-25T16:46:14.631Z,4.60
2019-04-25T16:48:43.232Z,4.90
2019-04-25T16:51:12.029Z,3.37
2019-04-25T16:53:40.499Z,3.50
2019-04-25T16:56:09.372Z,4.95
2019-04-25T16:58:38.638Z,4.95
2019-04-25T17:01:09.067Z,5.30
2019-04-25T17:03:37.803Z,7.47
2019-04-25T17:06:06.610Z,7.45
2019-04-25T17:08:35.697Z,6.47
2019-04-25T17:11:05.940Z,6.30
2019-04-25T17:13:36.271Z,6.30
2019-04-25T17:16:18.727Z,6.08
2019-04-25T17:18:51.792Z,6.62
2019-04-25T17:21:20.313Z,6.40
2019-04-25T17:23:48.838Z,6.47
2019-04-25T17:26:18.837Z,6.40
2019-04-25T17:28:49.078Z,7.67
2019-04-25T17:34:16.638Z,9.25
2019-04-25T17:36:52.959Z,9.90
2019-04-25T17:39:23.189Z,9.75
2019-04-25T17:41:51.693Z,10.18
2019-04-25T17:44:20.181Z,9.85
2019-04-25T17:46:48.809Z,8.85
2019-04-25T17:49:17.367Z,9.55
2019-04-25T17:51:45.841Z,10.98
2019-04-25T17:54:14.515Z,10.03
2019-04-25T17:56:43.083Z,10.28
2019-04-25T17:59:11.575Z,10.23
2019-04-25T18:01:40.227Z,9.85
2019-04-25T18:04:08.838Z,9.33
2019-04-25T18:06:37.686Z,10.07
2019-04-25T18:09:07.513Z,8.80
2019-04-25T18:11:36.222Z,9.50
2019-04-25T18:14:05.019Z,9.60
2019-04-25T18:16:38.203Z,10.57
2019-04-25T18:19:08.516Z,10.20
2019-04-25T18:21:37.086Z,9.60
2019-04-25T18:24:19.819Z,9.63
2019-04-25T18:26:58.980Z,9.80
2019-04-25T18:29:27.627Z,9.17
2019-04-25T18:31:56.133Z,9.50
2019-04-25T18:34:26.522Z,9.60
2019-04-25T18:37:11.478Z,9.60
2019-04-25T18:39:41.980Z,9.87
2019-04-25T18:42:12.325Z,9.27
2019-04-25T18:44:41.943Z,9.30
2019-04-25T18:47:10.459Z,9.47
2019-04-25T18:49:40.436Z,9.67
2019-04-25T18:52:10.773Z,9.47
2019-04-25T18:54:52.958Z,9.57
2019-04-25T18:57:29.197Z,9.73
2019-04-25T18:59:59.313Z,10.20
2019-04-25T19:02:35.645Z,9.90
2019-04-25T19:05:22.411Z,10.50
2019-04-25T19:07:51.792Z,11.43
2019-04-25T19:10:20.616Z,10.63
2019-04-25T19:12:49.182Z,11.93
2019-04-25T19:15:17.857Z,11.20
2019-04-25T19:17:47.309Z,11.80
2019-04-25T19:20:16.096Z,12.10
2019-04-25T19:22:44.564Z,11.97
2019-04-25T19:25:13.279Z,11.90
2019-04-25T19:27:42.092Z,11.90
2019-04-25T19:30:12.725Z,12.43
2019-04-25T19:32:41.686Z,11.90
2019-04-25T19:35:11.189Z,11.63
2019-04-25T19:37:40.526Z,12.33
2019-04-25T19:40:23.310Z,12.90
2019-04-25T19:43:03.391Z,12.97
2019-04-25T19:45:33.366Z,13.23
2019-04-25T19:48:02.019Z,12.40
2019-04-25T19:50:30.630Z,13.23
2019-04-25T19:52:59.217Z,12.87
2019-04-25T19:55:27.694Z,13.27
2019-04-25T19:57:56.238Z,12.97
2019-04-25T20:00:24.916Z,13.30
2019-04-25T20:02:57.792Z,13.20
2019-04-25T20:05:30.816Z,14.37
2019-04-25T20:08:14.612Z,14.60
2019-04-25T20:10:45.082Z,14.30
2019-04-25T20:13:13.783Z,14.57
2019-04-25T20:15:44.057Z,15.10
2019-04-25T20:18:14.252Z,16.73
2019-04-25T20:20:43.624Z,17.37
2019-04-25T20:23:12.951Z,18.57
2019-04-25T20:25:41.478Z,18.43
2019-04-25T20:28:09.980Z,18.53
2019-04-25T20:30:38.602Z,18.07
2019-04-25T20:33:07.181Z,18.93
2019-04-25T20:35:35.743Z,19.30
2019-04-25T20:38:04.537Z,20.80
2019-04-25T20:40:33.057Z,20.60
2019-04-25T20:43:01.601Z,19.80
2019-04-25T20:45:30.346Z,20.40
2019-04-25T20:47:58.943Z,20.20
2019-04-25T20:50:27.480Z,19.87
2019-04-25T20:52:55.944Z,21.00
2019-04-25T20:55:24.455Z,20.67
2019-04-25T20:57:53.273Z,22.73
2019-04-25T21:00:43.939Z,21.73
2019-04-25T21:03:12.587Z,23.20
2019-04-25T21:05:41.477Z,24.07
2019-04-25T21:08:10.070Z,24.97
2019-04-25T21:10:38.615Z,24.23
2019-04-25T21:13:08.784Z,24.13
2019-04-25T21:15:54.416Z,25.37
2019-04-25T21:18:30.655Z,27.00
2019-04-25T21:20:59.241Z,27.97
2019-04-25T21:23:27.789Z,30.03
2019-04-25T21:25:56.954Z,29.60
2019-04-25T21:28:25.702Z,30.53
2019-04-25T21:30:54.789Z,29.33
2019-04-25T21:33:23.426Z,30.07
2019-04-25T21:35:53.257Z,29.03
2019-04-25T21:38:22.120Z,30.63
2019-04-25T21:40:53.023Z,30.03
2019-04-25T21:43:27.440Z,31.00
2019-04-25T21:45:56.273Z,29.40
2019-04-25T21:48:25.160Z,31.30
2019-04-25T21:50:54.976Z,28.30
2019-04-25T21:53:23.470Z,29.93
2019-04-25T21:55:53.227Z,32.17
2019-04-25T21:58:22.432Z,29.27
2019-04-25T22:00:56.578Z,30.97
2019-04-25T22:03:26.675Z,30.73
2019-04-25T22:05:56.730Z,31.97
2019-04-25T22:08:25.598Z,30.80
2019-04-25T22:10:55.806Z,31.90
2019-04-25T22:13:24.960Z,31.00
2019-04-25T22:15:53.835Z,30.10
2019-04-25T22:18:43.058Z,32.20
2019-04-25T22:21:12.046Z,31.67
2019-04-25T22:23:41.065Z,31.90
2019-04-25T22:26:09.955Z,32.57
2019-04-25T22:28:38.930Z,31.33
2019-04-25T22:31:09.422Z,31.90
2019-04-25T22:33:55.595Z,33.43
2019-04-25T22:36:27.925Z,31.23
2019-04-25T22:39:12.244Z,34.20
2019-04-25T22:41:46.456Z,34.67
2019-04-25T22:44:16.029Z,35.20
2019-04-25T22:46:45.011Z,36.23
2019-04-25T22:49:13.714Z,33.67
2019-04-25T22:51:42.171Z,33.37
2019-04-25T22:54:11.786Z,35.53
2019-04-25T22:56:40.580Z,35.40
2019-04-25T22:59:09.474Z,36.70
2019-04-25T23:01:51.596Z,35.30
2019-04-25T23:04:38.253Z,36.13
2019-04-25T23:07:10.096Z,38.13
2019-04-25T23:09:39.232Z,37.53
2019-04-25T23:12:08.712Z,37.47
2019-04-25T23:14:37.774Z,36.73
2019-04-25T23:17:07.344Z,36.03
2019-04-25T23:19:35.888Z,36.33
2019-04-25T23:22:05.638Z,35.97
2019-04-25T23:24:35.834Z,36.60
2019-04-25T23:27:09.838Z,36.43
2019-04-25T23:29:38.618Z,35.37
2019-04-25T23:32:08.494Z,36.70
2019-04-25T23:34:37.131Z,36.10
2019-04-25T23:37:06.276Z,35.23
2019-04-25T23:39:35.929Z,37.07
2019-04-25T23:42:05.947Z,37.00
2019-04-25T23:44:34.712Z,34.27
2019-04-25T23:47:03.536Z,36.20
2019-04-25T23:49:32.126Z,35.67
2019-04-25T23:52:00.862Z,35.23
2019-04-25T23:54:29.344Z,35.67
2019-04-25T23:56:58.252Z,35.30
2019-04-25T23:59:27.055Z,35.77
